KPRN

Details ICAO KPRN
Name MAC CRENSHAW MEM
Region United States
Timezone America/Chicago (UTC-6.0)
Plans Departing 0
Arriving 2
Stats Elevation 451 ft / 137 m (AMSL)
Location 31.845695° -86.610737°
Runways 1
Magnetic Variation 3.367° W
Sunrise 2017-12-14 12:40:05 UTC / 2017-12-14 06:40:05 Local
Sunset 2017-12-14 22:45:11 UTC / 2017-12-14 16:45:11 Local
Advertisement - Login to hide

Runways

ID Width Length Bearing (true) Bearing (mag) Surface Threshold Offset Overrun Length
14 80 ft / 24 m 5,506 ft / 1,678 m 139.81° 143.18° Asphalt 0 ft / 0 m 0 ft / 0 m
32 80 ft / 24 m 5,506 ft / 1,678 m 319.81° 323.18° Asphalt 300 ft / 91 m 0 ft / 0 m

Map

Weather


0- 5 10 15 20 25 30 35+ Temperature / ° C

Clouds and Precipitation
Forecast for 2017-12-14 18:00 UTC. Updated 2 hours ago

Ground ~20,000 ft ~40,000 ft Winds

METAR

KPRN 141756Z AUTO 00000KT 10SM CLR 16/02 A2996 RMK AO2 SLP145 T01560022 10156 20006 58010

TAF

Not found

Frequencies

Recorded 120.00 MHz ASOS
Unicom 122.80 MHz CTAF/UNICOM
Warning: Do not use this data for real-world aviation or navigation. No guarantee of current accuracy is given.